Time;durP1;ratioP1;P1;durP2;ratioP2;P2;SDS_P1;SDS_P2;PMS_P1;PMS_P2;Temp;Humidity;BMP_temperature;BMP_pressure;BME280_temperature;BME280_humidity;BME280_pressure;Samples;Min_cycle;Max_cycle;Signal;HPM_P1;HPM_P2
2022/12/24 00:01:21;;;;;;;17.73;14.95;;;13.30;96.70;;;;;;4903976;29;20047;-74
2022/12/24 00:03:50;;;;;;;19.05;15.55;;;13.30;96.70;;;;;;4900637;29;20163;-74
2022/12/24 00:06:20;;;;;;;18.77;14.73;;;13.30;96.70;;;;;;4918034;29;20103;-74
2022/12/24 00:08:48;;;;;;;17.98;14.65;;;13.30;96.70;;;;;;4911010;29;20048;-75
2022/12/24 00:11:16;;;;;;;17.60;14.95;;;13.30;96.70;;;;;;4918068;29;20067;-74
2022/12/24 00:13:46;;;;;;;18.35;14.65;;;13.30;96.70;;;;;;4913227;29;20061;-73
2022/12/24 00:16:14;;;;;;;18.23;15.68;;;13.30;96.70;;;;;;4913567;29;20054;-75
2022/12/24 00:18:42;;;;;;;18.83;14.52;;;13.30;96.70;;;;;;4914937;29;20040;-75
2022/12/24 00:21:14;;;;;;;16.48;14.77;;;13.30;96.70;;;;;;4878305;29;20539;-74
2022/12/24 00:23:42;;;;;;;16.90;15.00;;;13.30;96.70;;;;;;4897009;29;20387;-74
2022/12/24 00:26:11;;;;;;;15.50;13.27;;;13.30;96.70;;;;;;4898816;29;20129;-74
2022/12/24 00:28:40;;;;;;;15.57;13.13;;;13.30;96.70;;;;;;4903813;29;20045;-73
2022/12/24 00:31:12;;;;;;;18.25;14.00;;;13.30;96.70;;;;;;4897643;29;20040;-74
2022/12/24 00:33:45;;;;;;;16.23;13.48;;;13.30;96.70;;;;;;4878741;29;20079;-74
2022/12/24 00:36:16;;;;;;;17.70;14.00;;;13.30;96.70;;;;;;4903232;29;20051;-73
2022/12/24 00:38:44;;;;;;;15.73;13.43;;;13.30;96.70;;;;;;4902887;29;20414;-74
2022/12/24 00:41:26;;;;;;;16.50;13.27;;;13.30;96.70;;;;;;4891074;29;20648;-75
2022/12/24 00:43:56;;;;;;;15.25;13.50;;;13.30;96.70;;;;;;4894973;29;20067;-74
2022/12/24 00:46:27;;;;;;;16.38;13.68;;;13.30;96.70;;;;;;4897156;29;20056;-74
2022/12/24 00:48:55;;;;;;;20.15;14.07;;;13.30;96.70;;;;;;4900424;29;20056;-74
2022/12/24 00:51:24;;;;;;;16.50;13.70;;;13.30;96.70;;;;;;4887566;29;20044;-75
2022/12/24 00:53:53;;;;;;;15.45;12.60;;;13.30;96.70;;;;;;4890445;29;20108;-75
2022/12/24 00:56:20;;;;;;;14.88;13.07;;;13.20;96.70;;;;;;4884762;29;20048;-74
2022/12/24 00:58:49;;;;;;;16.63;13.68;;;13.30;96.70;;;;;;4900395;29;20117;-75
2022/12/24 01:01:17;;;;;;;16.55;13.48;;;13.30;96.70;;;;;;4900473;29;20584;-74
2022/12/24 01:03:48;;;;;;;15.23;13.20;;;13.30;96.70;;;;;;4897236;29;20051;-73
2022/12/24 01:06:18;;;;;;;14.70;12.57;;;13.30;96.70;;;;;;4897860;29;20052;-75
2022/12/24 01:08:49;;;;;;;15.27;12.60;;;13.30;96.70;;;;;;4889329;29;20052;-75
2022/12/24 01:11:17;;;;;;;15.73;12.82;;;13.30;96.70;;;;;;4901133;29;20037;-75
2022/12/24 01:13:45;;;;;;;15.00;13.18;;;13.30;96.70;;;;;;4893270;29;20055;-75
2022/12/24 01:16:15;;;;;;;16.00;13.05;;;13.30;96.70;;;;;;4882747;29;20063;-75
2022/12/24 01:18:43;;;;;;;18.48;12.68;;;13.20;96.70;;;;;;4894542;29;20080;-75
2022/12/24 01:21:12;;;;;;;14.23;12.15;;;13.20;96.70;;;;;;4910308;29;20577;-75
2022/12/24 01:23:40;;;;;;;13.77;11.52;;;13.20;96.70;;;;;;4891865;29;20108;-75
2022/12/24 01:26:11;;;;;;;15.40;12.55;;;13.30;96.70;;;;;;4883462;29;20048;-75
2022/12/24 01:28:39;;;;;;;13.98;11.82;;;13.30;96.70;;;;;;4894000;29;20075;-74
2022/12/24 01:31:11;;;;;;;14.95;11.57;;;13.30;96.70;;;;;;4901029;29;20494;-74
2022/12/24 01:33:40;;;;;;;15.70;12.40;;;13.30;96.70;;;;;;4925201;29;20048;-75
2022/12/24 01:36:09;;;;;;;15.10;12.38;;;13.30;96.70;;;;;;4881764;29;20048;-75
2022/12/24 01:38:39;;;;;;;14.20;12.60;;;13.30;96.70;;;;;;4906038;29;20056;-75
2022/12/24 01:44:18;;;;;;;14.50;12.88;;;13.20;96.70;;;;;;4915551;29;20114;-75
2022/12/24 01:46:48;;;;;;;13.52;11.63;;;13.30;96.70;;;;;;4918020;29;20076;-77
2022/12/24 01:49:17;;;;;;;15.30;13.65;;;13.30;96.70;;;;;;4908500;29;20481;-77
2022/12/24 01:51:48;;;;;;;16.77;13.27;;;13.30;96.70;;;;;;4880927;29;20052;-77
2022/12/24 01:54:22;;;;;;;13.82;11.93;;;13.30;96.70;;;;;;4904390;29;20869;-77
2022/12/24 01:56:54;;;;;;;14.73;13.15;;;13.30;96.70;;;;;;4901851;29;20052;-75
2022/12/24 01:59:22;;;;;;;15.75;12.93;;;13.30;96.70;;;;;;4915966;29;20098;-76
2022/12/24 02:01:52;;;;;;;15.48;13.18;;;13.30;96.70;;;;;;4920176;29;20054;-76
2022/12/24 02:04:29;;;;;;;17.30;13.77;;;13.30;96.70;;;;;;4921764;29;20048;-78
2022/12/24 02:06:57;;;;;;;18.13;13.65;;;13.30;96.70;;;;;;4919675;29;20736;-77
2022/12/24 02:09:27;;;;;;;17.95;14.02;;;13.30;96.70;;;;;;4901432;29;20472;-77
2022/12/24 02:11:56;;;;;;;16.73;13.40;;;13.30;96.70;;;;;;4906539;29;20051;-76
2022/12/24 02:14:25;;;;;;;18.20;14.18;;;13.30;96.70;;;;;;4897141;29;20153;-77
2022/12/24 02:17:00;;;;;;;18.58;14.85;;;13.30;96.70;;;;;;4916852;29;20181;-76
2022/12/24 02:20:02;;;;;;;16.52;13.55;;;13.30;96.70;;;;;;4906252;29;20415;-77
2022/12/24 02:22:45;;;;;;;15.85;12.68;;;13.30;96.70;;;;;;4903580;29;20055;-77
2022/12/24 02:25:43;;;;;;;16.25;13.38;;;13.30;96.70;;;;;;4902753;29;20095;-77
2022/12/24 02:28:20;;;;;;;17.30;12.63;;;13.30;96.70;;;;;;4899904;29;20083;-76
2022/12/24 02:30:53;;;;;;;18.90;14.13;;;13.30;96.70;;;;;;4883527;29;20075;-76
2022/12/24 02:33:29;;;;;;;16.63;13.07;;;13.30;96.70;;;;;;4898785;29;20044;-76
2022/12/24 02:36:01;;;;;;;15.88;13.57;;;13.30;96.70;;;;;;4899622;29;20511;-77
2022/12/24 02:38:33;;;;;;;16.77;12.32;;;13.30;96.70;;;;;;4904330;29;20853;-76
2022/12/24 02:41:06;;;;;;;14.60;12.65;;;13.30;96.70;;;;;;4912832;29;20048;-77
2022/12/24 02:43:36;;;;;;;16.25;12.02;;;13.30;96.70;;;;;;4891471;29;20098;-76
2022/12/24 02:46:10;;;;;;;14.15;12.00;;;13.30;96.70;;;;;;4910503;29;20048;-77
2022/12/24 02:48:42;;;;;;;13.55;11.98;;;13.30;96.70;;;;;;4899133;29;20052;-77
2022/12/24 02:51:10;;;;;;;14.27;12.77;;;13.30;96.70;;;;;;4924412;29;20092;-76
2022/12/24 02:53:40;;;;;;;14.18;12.68;;;13.30;96.70;;;;;;4917826;29;20058;-77
2022/12/24 02:56:30;;;;;;;13.18;11.77;;;13.30;96.70;;;;;;4914044;29;20048;-77
2022/12/24 02:59:27;;;;;;;13.68;11.35;;;13.30;96.70;;;;;;4893994;29;20562;-77
2022/12/24 03:02:06;;;;;;;15.10;12.13;;;13.30;96.70;;;;;;4898579;29;20047;-76
2022/12/24 03:04:47;;;;;;;14.88;12.77;;;13.30;96.70;;;;;;4921540;29;20052;-79
2022/12/24 03:07:21;;;;;;;15.68;12.30;;;13.30;96.70;;;;;;4902223;29;20465;-77
2022/12/24 03:10:05;;;;;;;14.00;11.82;;;13.30;96.70;;;;;;4892340;29;20664;-76
2022/12/24 03:12:41;;;;;;;13.45;11.95;;;13.30;96.70;;;;;;4898700;29;20052;-77
2022/12/24 03:15:10;;;;;;;;;;;13.30;96.70;;;;;;4909966;29;20040;-77
2022/12/24 03:17:44;;;;;;;15.35;11.73;;;13.30;96.70;;;;;;4923149;29;20021;-77
2022/12/24 03:20:19;;;;;;;15.60;11.82;;;13.30;96.70;;;;;;4886332;29;20115;-77
2022/12/24 03:22:48;;;;;;;16.00;12.40;;;13.30;96.70;;;;;;4895757;29;20079;-77
2022/12/24 03:25:16;;;;;;;12.32;11.05;;;13.30;96.70;;;;;;4881471;29;20036;-76
2022/12/24 03:27:45;;;;;;;13.48;11.77;;;13.30;96.70;;;;;;4919077;29;20132;-77
2022/12/24 03:30:14;;;;;;;15.18;12.00;;;13.30;96.70;;;;;;4895144;29;20495;-77
2022/12/24 03:32:45;;;;;;;16.77;12.13;;;13.30;96.70;;;;;;4902105;29;20123;-76
2022/12/24 03:35:13;;;;;;;14.85;12.43;;;13.30;96.70;;;;;;4915135;29;20205;-76
2022/12/24 03:37:41;;;;;;;15.35;10.75;;;13.30;96.70;;;;;;4908401;29;20047;-76
2022/12/24 03:40:10;;;;;;;12.85;10.90;;;13.30;96.70;;;;;;4901449;29;20047;-77
2022/12/24 03:42:38;;;;;;;15.02;12.02;;;13.30;96.70;;;;;;4890917;29;20051;-77
2022/12/24 03:45:07;;;;;;;12.75;11.32;;;13.30;96.70;;;;;;4900954;29;20040;-75
2022/12/24 03:47:34;;;;;;;13.32;11.93;;;13.30;96.70;;;;;;4920590;29;20086;-76
2022/12/24 03:50:05;;;;;;;11.98;10.05;;;13.30;96.70;;;;;;4920796;29;20044;-76
2022/12/24 03:52:33;;;;;;;11.32;9.88;;;13.30;96.70;;;;;;4891891;29;20064;-76
2022/12/24 03:55:01;;;;;;;15.60;10.65;;;13.30;96.70;;;;;;4897549;29;20048;-76
2022/12/24 03:57:29;;;;;;;11.70;9.50;;;13.30;96.70;;;;;;4906509;29;20044;-77
2022/12/24 03:59:56;;;;;;;12.50;10.18;;;13.30;96.70;;;;;;4917173;29;20059;-76
2022/12/24 04:02:24;;;;;;;11.65;9.57;;;13.40;96.70;;;;;;4915917;29;20103;-77
2022/12/24 04:04:52;;;;;;;10.60;9.50;;;13.30;96.70;;;;;;4898446;29;20463;-76
2022/12/24 04:07:22;;;;;;;11.98;9.63;;;13.40;96.70;;;;;;4907947;29;20034;-77
2022/12/24 04:09:49;;;;;;;12.52;9.52;;;13.30;96.70;;;;;;4912942;29;20055;-76
2022/12/24 04:12:17;;;;;;;10.35;8.88;;;13.40;96.70;;;;;;4896935;29;20044;-77
2022/12/24 04:14:45;;;;;;;10.73;9.35;;;13.30;96.70;;;;;;4913367;29;20051;-77
2022/12/24 04:17:13;;;;;;;10.57;8.88;;;13.30;96.70;;;;;;4902137;29;20510;-77
2022/12/24 04:19:41;;;;;;;10.30;8.45;;;13.30;96.70;;;;;;4908406;29;20044;-76
2022/12/24 04:22:09;;;;;;;9.85;8.85;;;13.30;96.70;;;;;;4901228;29;20050;-76
2022/12/24 04:24:38;;;;;;;10.95;8.60;;;13.30;96.70;;;;;;4905550;29;20063;-77
2022/12/24 04:27:06;;;;;;;9.85;8.45;;;13.40;96.70;;;;;;4903750;29;20051;-76
2022/12/24 04:29:35;;;;;;;11.02;9.85;;;13.40;96.70;;;;;;4916933;29;20063;-77
2022/12/24 04:32:04;;;;;;;10.10;9.02;;;13.30;96.70;;;;;;4913826;29;20059;-74
2022/12/24 04:34:33;;;;;;;11.13;8.52;;;13.30;96.70;;;;;;4907331;29;20047;-75
2022/12/24 04:37:01;;;;;;;10.98;8.82;;;13.40;96.70;;;;;;4914952;29;20049;-75
2022/12/24 04:39:30;;;;;;;10.27;8.80;;;13.40;96.70;;;;;;4892319;29;20044;-74
2022/12/24 04:42:00;;;;;;;10.20;8.60;;;13.40;96.70;;;;;;4898283;29;20051;-74
2022/12/24 04:44:28;;;;;;;10.13;8.63;;;13.30;96.70;;;;;;4913710;29;20051;-75
2022/12/24 04:46:55;;;;;;;9.95;8.90;;;13.30;96.70;;;;;;4923968;29;20043;-75
2022/12/24 04:49:23;;;;;;;8.90;7.97;;;13.30;96.70;;;;;;4899206;29;20099;-75
2022/12/24 04:51:51;;;;;;;9.70;7.78;;;13.30;96.70;;;;;;4897314;29;20044;-74
2022/12/24 04:54:20;;;;;;;10.07;7.82;;;13.30;96.70;;;;;;4920456;29;20051;-75
2022/12/24 04:56:48;;;;;;;10.57;8.52;;;13.30;96.70;;;;;;4909099;29;20080;-75
2022/12/24 04:59:17;;;;;;;9.90;8.48;;;13.30;96.70;;;;;;4904039;29;20139;-75
2022/12/24 05:01:45;;;;;;;8.85;7.75;;;13.30;96.70;;;;;;4910570;29;20044;-75
2022/12/24 05:04:13;;;;;;;11.38;8.18;;;13.30;96.70;;;;;;4897110;29;20052;-75
2022/12/24 05:06:41;;;;;;;9.45;8.32;;;13.30;96.70;;;;;;4909527;29;20127;-74
2022/12/24 05:09:10;;;;;;;10.00;8.50;;;13.30;96.70;;;;;;4890729;29;20506;-75
2022/12/24 05:11:37;;;;;;;11.48;7.85;;;13.30;96.70;;;;;;4901414;29;20044;-74
2022/12/24 05:14:05;;;;;;;10.10;7.78;;;13.30;96.70;;;;;;4888060;29;20406;-73
2022/12/24 05:16:37;;;;;;;9.23;8.07;;;13.30;96.70;;;;;;4909048;29;20054;-75
2022/12/24 05:19:05;;;;;;;8.68;7.68;;;13.30;96.70;;;;;;4916326;29;20068;-74
2022/12/24 05:21:33;;;;;;;11.00;8.07;;;13.30;96.70;;;;;;4920748;29;20131;-75
2022/12/24 05:26:49;;;;;;;10.00;8.05;;;13.30;96.70;;;;;;4909576;29;20445;-74
2022/12/24 05:29:17;;;;;;;8.95;8.05;;;13.30;96.70;;;;;;4891606;29;20044;-74
2022/12/24 05:31:48;;;;;;;11.40;7.50;;;13.30;96.70;;;;;;4882643;29;20115;-75
2022/12/24 05:34:17;;;;;;;8.80;7.53;;;13.30;96.70;;;;;;4906534;29;20054;-74
2022/12/24 05:36:45;;;;;;;8.65;7.57;;;13.30;96.70;;;;;;4900623;29;20044;-74
2022/12/24 05:39:15;;;;;;;7.97;7.05;;;13.30;96.70;;;;;;4915136;29;20115;-75
2022/12/24 05:41:43;;;;;;;9.80;7.72;;;13.30;96.70;;;;;;4894147;29;20451;-74
2022/12/24 05:44:11;;;;;;;9.45;7.25;;;13.30;96.70;;;;;;4899934;29;20127;-74
2022/12/24 05:46:39;;;;;;;8.38;7.38;;;13.30;96.70;;;;;;4900748;29;20138;-74
2022/12/24 05:49:09;;;;;;;9.38;8.15;;;13.30;96.70;;;;;;4926276;29;20075;-75
2022/12/24 05:51:39;;;;;;;8.85;7.95;;;13.30;96.70;;;;;;4903194;29;20048;-74
2022/12/24 05:54:07;;;;;;;10.38;7.68;;;13.30;96.70;;;;;;4901154;29;20059;-74
2022/12/24 05:56:35;;;;;;;9.50;7.40;;;13.30;96.70;;;;;;4919034;29;20042;-74
2022/12/24 05:59:03;;;;;;;9.05;7.35;;;13.30;96.70;;;;;;4903258;29;20605;-75
2022/12/24 06:01:30;;;;;;;8.63;7.43;;;13.30;96.70;;;;;;4921962;29;20036;-74
2022/12/24 06:03:58;;;;;;;10.07;7.78;;;13.40;96.70;;;;;;4908589;29;20055;-75
2022/12/24 06:06:28;;;;;;;8.80;7.85;;;13.40;96.70;;;;;;4893718;29;20594;-75
2022/12/24 06:08:56;;;;;;;9.20;8.18;;;13.40;96.70;;;;;;4900424;29;20443;-75
2022/12/24 06:11:25;;;;;;;9.02;7.90;;;13.40;96.70;;;;;;4909550;29;20123;-74
2022/12/24 06:13:54;;;;;;;9.65;8.27;;;13.40;96.70;;;;;;4895873;29;20047;-74
2022/12/24 06:16:23;;;;;;;8.10;7.35;;;13.40;96.70;;;;;;4916321;29;20035;-74
2022/12/24 06:18:51;;;;;;;7.90;7.13;;;13.40;96.70;;;;;;4912320;29;20131;-74
2022/12/24 06:21:19;;;;;;;8.70;7.68;;;13.40;96.70;;;;;;4900222;29;20059;-74
2022/12/24 06:23:48;;;;;;;9.60;7.38;;;13.40;96.70;;;;;;4920176;29;20039;-75
2022/12/24 06:26:19;;;;;;;10.25;7.47;;;13.40;96.70;;;;;;4921153;29;20043;-74
2022/12/24 06:28:48;;;;;;;8.60;7.70;;;13.40;96.70;;;;;;4914183;29;20126;-75
2022/12/24 06:31:18;;;;;;;8.15;7.35;;;13.40;96.70;;;;;;4898178;29;20074;-75
2022/12/24 06:33:47;;;;;;;10.52;7.28;;;13.40;96.70;;;;;;4892475;29;20044;-75
2022/12/24 06:36:17;;;;;;;10.68;8.05;;;13.40;96.70;;;;;;4900647;29;20730;-75
2022/12/24 06:38:46;;;;;;;8.25;7.30;;;13.40;96.70;;;;;;4895356;29;20052;-75
2022/12/24 06:41:16;;;;;;;8.32;7.43;;;13.40;96.70;;;;;;4905327;29;20115;-75
2022/12/24 06:43:45;;;;;;;12.18;10.75;;;13.40;96.70;;;;;;4901627;29;20064;-75
2022/12/24 06:46:13;;;;;;;12.20;8.48;;;13.40;96.70;;;;;;4900276;29;20043;-74
2022/12/24 06:48:42;;;;;;;11.07;8.57;;;13.40;96.70;;;;;;4904843;29;20061;-75
2022/12/24 06:51:10;;;;;;;9.30;8.30;;;13.50;96.70;;;;;;4893553;29;20047;-75
2022/12/24 06:53:38;;;;;;;10.27;8.15;;;13.40;96.70;;;;;;4902840;29;20160;-75
2022/12/24 06:56:08;;;;;;;10.52;8.40;;;13.50;96.70;;;;;;4891797;29;20048;-74
2022/12/24 06:58:38;;;;;;;9.55;8.55;;;13.50;96.70;;;;;;4891854;29;20455;-74
2022/12/24 07:01:07;;;;;;;8.77;7.72;;;13.50;96.70;;;;;;4922691;29;20128;-74
2022/12/24 07:03:35;;;;;;;10.32;8.43;;;13.50;96.70;;;;;;4925805;29;20070;-74
2022/12/24 07:06:03;;;;;;;10.32;7.90;;;13.50;96.70;;;;;;4921658;29;20044;-75
2022/12/24 07:08:32;;;;;;;10.27;8.48;;;13.50;96.70;;;;;;4917173;29;20041;-76
2022/12/24 07:11:00;;;;;;;10.88;8.52;;;13.50;96.70;;;;;;4892226;29;20656;-75
2022/12/24 07:13:28;;;;;;;9.65;8.55;;;13.50;96.70;;;;;;4909926;29;20065;-74
2022/12/24 07:15:59;;;;;;;11.60;8.40;;;13.50;96.70;;;;;;4913514;29;20052;-75
2022/12/24 07:18:27;;;;;;;9.00;8.07;;;13.50;96.70;;;;;;4882824;29;20059;-75
2022/12/24 07:20:55;;;;;;;8.85;7.60;;;13.50;96.70;;;;;;4912656;29;20407;-75
2022/12/24 07:23:23;;;;;;;9.40;8.10;;;13.50;96.70;;;;;;4901058;29;20131;-75
2022/12/24 07:25:50;;;;;;;11.68;9.02;;;13.60;96.70;;;;;;4911496;29;20044;-74
2022/12/24 07:28:18;;;;;;;10.63;8.32;;;13.60;96.70;;;;;;4899020;29;20040;-75
2022/12/24 07:30:54;;;;;;;10.50;8.23;;;13.60;96.70;;;;;;4888734;29;20152;-75
2022/12/24 07:33:24;;;;;;;10.07;8.45;;;13.60;96.70;;;;;;4901699;29;20308;-75
2022/12/24 07:35:58;;;;;;;13.02;8.90;;;13.60;96.70;;;;;;4895884;29;20835;-75
2022/12/24 07:38:26;;;;;;;10.07;8.93;;;13.60;96.70;;;;;;4889334;29;20066;-75
2022/12/24 07:40:54;;;;;;;13.55;8.73;;;13.60;96.70;;;;;;4914262;29;20578;-74
2022/12/24 07:43:22;;;;;;;9.32;8.27;;;13.60;96.70;;;;;;4891082;29;20103;-75
2022/12/24 07:45:53;;;;;;;12.70;9.23;;;13.60;96.70;;;;;;4899389;29;20074;-77
2022/12/24 07:48:23;;;;;;;13.10;11.15;;;13.60;96.70;;;;;;4917373;29;20044;-76
2022/12/24 07:50:52;;;;;;;11.32;10.10;;;13.60;96.70;;;;;;4892713;29;20048;-77
2022/12/24 07:53:20;;;;;;;11.10;9.43;;;13.60;96.70;;;;;;4909450;29;20039;-76
2022/12/24 07:55:48;;;;;;;12.43;9.77;;;13.60;96.70;;;;;;4910299;29;20107;-76
2022/12/24 07:58:16;;;;;;;10.38;8.95;;;13.60;96.70;;;;;;4900664;29;20130;-76
2022/12/24 08:00:44;;;;;;;10.23;8.63;;;13.60;96.70;;;;;;4915601;29;20047;-76
2022/12/24 08:03:23;;;;;;;11.70;8.45;;;13.60;96.70;;;;;;4912613;29;20044;-78
2022/12/24 08:05:54;;;;;;;9.38;8.35;;;13.60;96.70;;;;;;4913711;29;20502;-78
2022/12/24 08:08:22;;;;;;;9.90;8.40;;;13.70;96.70;;;;;;4914414;29;20064;-79
2022/12/24 08:10:50;;;;;;;10.32;8.43;;;13.60;96.70;;;;;;4913401;29;20048;-78
2022/12/24 08:13:18;;;;;;;10.45;8.88;;;13.70;96.70;;;;;;4896583;29;20067;-78
2022/12/24 08:15:46;;;;;;;17.05;13.57;;;13.60;96.70;;;;;;4895887;29;20762;-79
2022/12/24 08:18:14;;;;;;;12.73;10.70;;;13.70;96.70;;;;;;4898677;29;20090;-77
2022/12/24 08:20:44;;;;;;;11.07;9.32;;;13.70;96.70;;;;;;4911459;29;20782;-79
2022/12/24 08:23:13;;;;;;;10.23;8.43;;;13.70;96.70;;;;;;4913712;29;20123;-79
2022/12/24 08:25:42;;;;;;;8.88;7.97;;;13.70;96.70;;;;;;4894227;29;20048;-81
2022/12/24 08:28:11;;;;;;;9.23;7.38;;;13.70;96.70;;;;;;4911743;29;20043;-79
2022/12/24 08:30:39;;;;;;;10.18;8.02;;;13.80;96.70;;;;;;4910863;29;20059;-80
2022/12/24 08:33:07;;;;;;;11.95;8.73;;;13.80;96.70;;;;;;4892859;29;20115;-76
2022/12/24 08:35:35;;;;;;;10.35;8.48;;;13.80;96.70;;;;;;4921510;29;20043;-78
2022/12/24 08:38:05;;;;;;;10.60;8.73;;;13.80;96.70;;;;;;4887150;29;20075;-77
2022/12/24 08:40:34;;;;;;;11.38;8.77;;;13.80;96.70;;;;;;4890179;29;20147;-76
2022/12/24 08:43:01;;;;;;;30.33;23.33;;;13.80;96.70;;;;;;4898248;29;20150;-78
2022/12/24 08:45:29;;;;;;;15.48;12.32;;;13.90;96.70;;;;;;4899177;29;20035;-80
2022/12/24 08:48:07;;;;;;;14.52;11.55;;;13.90;96.70;;;;;;4901336;29;20077;-80
2022/12/24 08:50:37;;;;;;;14.75;10.95;;;13.90;96.70;;;;;;4898431;29;20046;-76
2022/12/24 08:53:07;;;;;;;14.75;9.32;;;13.90;96.70;;;;;;4911173;29;20534;-77
2022/12/24 08:55:36;;;;;;;14.88;9.73;;;13.90;96.70;;;;;;4898106;29;20047;-77
2022/12/24 08:58:04;;;;;;;10.55;8.65;;;14.00;96.70;;;;;;4901642;29;20047;-77
2022/12/24 09:00:32;;;;;;;10.95;8.25;;;14.00;96.70;;;;;;4881590;29;20431;-78
2022/12/24 09:03:00;;;;;;;9.75;8.75;;;14.00;96.70;;;;;;4891121;29;20044;-79
2022/12/24 09:05:28;;;;;;;9.63;8.32;;;14.10;96.70;;;;;;4897379;29;20052;-76
2022/12/24 09:07:56;;;;;;;13.65;8.60;;;14.10;96.70;;;;;;4901128;29;20056;-76
2022/12/24 09:10:26;;;;;;;12.20;8.43;;;14.10;96.70;;;;;;4912360;29;20124;-76
2022/12/24 09:12:54;;;;;;;11.50;8.57;;;14.20;96.70;;;;;;4912908;29;20036;-76
2022/12/24 09:15:22;;;;;;;10.77;8.52;;;14.20;96.70;;;;;;4889301;29;20040;-76
2022/12/24 09:17:50;;;;;;;10.77;7.95;;;14.20;96.70;;;;;;4889460;29;20044;-76
2022/12/24 09:20:18;;;;;;;8.48;6.57;;;14.20;96.70;;;;;;4879784;29;20052;-76
2022/12/24 09:22:46;;;;;;;9.75;6.70;;;14.20;96.70;;;;;;4897101;29;20043;-76
2022/12/24 09:25:14;;;;;;;9.98;7.05;;;14.20;96.70;;;;;;4909846;29;20082;-77
2022/12/24 09:27:43;;;;;;;9.73;7.32;;;14.30;96.70;;;;;;4900784;29;20052;-79
2022/12/24 09:30:12;;;;;;;7.78;6.88;;;14.30;96.70;;;;;;4900210;29;20562;-77
2022/12/24 09:32:41;;;;;;;9.30;6.65;;;14.30;96.70;;;;;;4898930;29;20052;-79
2022/12/24 09:35:09;;;;;;;9.32;6.78;;;14.30;96.70;;;;;;4910935;29;20699;-78
2022/12/24 09:37:37;;;;;;;9.90;7.00;;;14.40;96.70;;;;;;4895505;29;20036;-80
2022/12/24 09:40:15;;;;;;;10.52;7.10;;;14.40;96.70;;;;;;4897461;29;20048;-78
2022/12/24 09:42:50;;;;;;;11.20;8.02;;;14.40;96.70;;;;;;4898872;29;20075;-79
2022/12/24 09:45:26;;;;;;;9.07;7.18;;;14.40;96.70;;;;;;4896474;29;20040;-77
2022/12/24 09:47:58;;;;;;;11.23;7.63;;;14.50;96.70;;;;;;4891438;29;20160;-77
2022/12/24 09:50:37;;;;;;;9.88;7.68;;;14.50;96.70;;;;;;4909959;29;20044;-77
2022/12/24 09:53:14;;;;;;;10.68;7.70;;;14.50;96.70;;;;;;4895002;29;20509;-76
2022/12/24 09:55:47;;;;;;;8.77;7.68;;;14.50;96.70;;;;;;4891533;29;20052;-77
2022/12/24 09:58:22;;;;;;;9.80;7.22;;;14.50;96.70;;;;;;4915264;29;20086;-79
2022/12/24 10:00:51;;;;;;;9.55;7.25;;;14.50;96.70;;;;;;4897867;29;21005;-76
2022/12/24 10:03:19;;;;;;;8.77;7.50;;;14.50;96.70;;;;;;4913271;29;20044;-76
2022/12/24 10:05:57;;;;;;;8.05;6.95;;;14.50;96.70;;;;;;4913789;29;20162;-76
2022/12/24 10:08:31;;;;;;;10.25;7.32;;;14.50;96.70;;;;;;4910886;29;20040;-76
2022/12/24 10:11:06;;;;;;;11.32;7.28;;;14.50;96.70;;;;;;4893462;29;20048;-77
2022/12/24 10:13:50;;;;;;;9.07;7.95;;;14.50;96.70;;;;;;4898134;29;20136;-75
2022/12/24 10:16:24;;;;;;;8.82;7.38;;;14.60;96.70;;;;;;4894885;29;20054;-78
2022/12/24 10:19:00;;;;;;;11.05;8.80;;;14.60;96.70;;;;;;4898493;29;20051;-76
2022/12/24 10:21:38;;;;;;;13.10;9.43;;;14.60;96.70;;;;;;4887136;29;20069;-76
2022/12/24 10:24:14;;;;;;;10.30;8.05;;;14.70;96.70;;;;;;4903081;29;20147;-77
2022/12/24 10:26:44;;;;;;;10.67;7.17;;;14.70;96.70;;;;;;4909127;29;20052;-78
2022/12/24 10:29:17;;;;;;;9.68;7.40;;;14.70;96.70;;;;;;4902379;29;20435;-76
2022/12/24 10:31:55;;;;;;;10.10;7.30;;;14.70;96.70;;;;;;4899298;29;20048;-77
2022/12/24 10:34:27;;;;;;;16.38;12.68;;;14.70;96.70;;;;;;4894486;29;20242;-77
2022/12/24 10:36:55;;;;;;;38.38;28.20;;;14.70;96.70;;;;;;4908666;29;20562;-78
2022/12/24 10:39:26;;;;;;;16.00;10.60;;;14.70;96.70;;;;;;4896511;29;20975;-76
2022/12/24 10:41:58;;;;;;;14.23;10.05;;;14.70;96.70;;;;;;4902940;29;20150;-78
2022/12/24 10:44:31;;;;;;;11.52;8.77;;;14.80;96.70;;;;;;4907220;29;20518;-76
2022/12/24 10:46:59;;;;;;;10.57;8.50;;;14.80;96.70;;;;;;4895647;29;20052;-78
2022/12/24 10:49:35;;;;;;;12.85;7.78;;;14.70;96.70;;;;;;4894313;29;20127;-77
2022/12/24 10:52:10;;;;;;;9.75;7.97;;;14.70;96.70;;;;;;4895098;29;20511;-77
2022/12/24 10:55:10;;;;;;;10.18;7.75;;;14.70;96.70;;;;;;4899386;29;20040;-78
2022/12/24 10:57:39;;;;;;;12.48;7.50;;;14.70;96.70;;;;;;4895014;29;20420;-77
2022/12/24 11:00:19;;;;;;;10.70;7.72;;;14.70;96.70;;;;;;4899330;29;20044;-77
2022/12/24 11:02:48;;;;;;;9.02;6.95;;;14.70;96.70;;;;;;4894378;29;20129;-78
2022/12/24 11:05:32;;;;;;;10.10;7.97;;;14.70;96.70;;;;;;4894401;29;20104;-78
2022/12/24 11:08:01;;;;;;;9.40;7.13;;;14.70;96.70;;;;;;4895587;29;20131;-77
2022/12/24 11:10:32;;;;;;;11.95;7.63;;;14.70;96.70;;;;;;4879265;29;20535;-77
2022/12/24 11:13:00;;;;;;;10.75;7.47;;;14.70;96.70;;;;;;4893713;29;20056;-77
2022/12/24 11:15:59;;;;;;;10.18;7.40;;;14.70;96.70;;;;;;4894524;29;20045;-77
2022/12/24 11:18:28;;;;;;;10.38;7.68;;;14.70;96.70;;;;;;4880468;29;20059;-78
2022/12/24 11:20:59;;;;;;;9.55;7.43;;;14.70;96.70;;;;;;4898290;29;20067;-78
2022/12/24 11:23:28;;;;;;;9.95;7.70;;;14.70;96.70;;;;;;4884565;29;20056;-78
2022/12/24 11:25:57;;;;;;;10.98;8.10;;;14.70;96.70;;;;;;4892422;29;20045;-78
2022/12/24 11:28:32;;;;;;;9.80;7.70;;;14.70;96.70;;;;;;4896000;29;20479;-78
2022/12/24 11:31:16;;;;;;;10.50;7.50;;;14.70;96.70;;;;;;4897963;29;20155;-77
2022/12/24 11:33:47;;;;;;;9.32;7.85;;;14.70;96.70;;;;;;4896351;29;20068;-77
2022/12/24 11:36:18;;;;;;;9.82;8.20;;;14.70;96.70;;;;;;4895567;29;20461;-80
2022/12/24 11:38:53;;;;;;;9.50;7.78;;;14.70;96.70;;;;;;4890338;29;20084;-80
2022/12/24 11:41:22;;;;;;;8.35;7.55;;;14.70;96.70;;;;;;4902267;29;20131;-77
2022/12/24 11:43:58;;;;;;;14.40;9.57;;;14.70;96.70;;;;;;4895827;29;20399;-76
2022/12/24 11:46:51;;;;;;;10.13;7.28;;;14.70;96.70;;;;;;4894328;29;20365;-79
2022/12/24 11:49:26;;;;;;;13.48;9.43;;;14.80;96.70;;;;;;4879796;29;20052;-78
2022/12/24 11:52:22;;;;;;;16.23;13.32;;;14.80;96.70;;;;;;4899580;29;20071;-76
2022/12/24 11:55:18;;;;;;;11.88;8.98;;;14.80;96.70;;;;;;4879218;29;20055;-76
2022/12/24 11:57:52;;;;;;;10.30;8.85;;;14.80;96.70;;;;;;4893371;29;20080;-75
2022/12/24 12:00:20;;;;;;;12.15;8.52;;;14.80;96.70;;;;;;4891656;29;20053;-75
2022/12/24 12:02:53;;;;;;;9.93;7.40;;;14.70;96.70;;;;;;4896626;29;20040;-75
2022/12/24 12:05:26;;;;;;;10.80;8.75;;;14.80;96.70;;;;;;4884979;29;20058;-76
2022/12/24 12:08:02;;;;;;;8.68;7.70;;;14.80;96.70;;;;;;4886546;29;20771;-74
2022/12/24 12:10:35;;;;;;;10.50;9.02;;;14.80;96.70;;;;;;4901786;29;20048;-76
2022/12/24 12:13:10;;;;;;;9.77;8.00;;;14.90;96.70;;;;;;4906461;29;20048;-75
2022/12/24 12:15:48;;;;;;;10.55;8.55;;;14.90;96.70;;;;;;4892753;29;20053;-74
2022/12/24 12:18:22;;;;;;;10.73;8.70;;;14.90;96.70;;;;;;4888738;29;20056;-76
2022/12/24 12:20:55;;;;;;;11.00;8.32;;;14.90;96.70;;;;;;4886966;29;20507;-75
2022/12/24 12:23:27;;;;;;;10.73;8.93;;;14.90;96.70;;;;;;4895496;29;20538;-76
2022/12/24 12:26:02;;;;;;;10.70;9.00;;;14.90;96.70;;;;;;4898399;29;20388;-75
2022/12/24 12:28:37;;;;;;;14.82;9.15;;;14.90;96.70;;;;;;4902400;29;20123;-75
2022/12/24 12:31:14;;;;;;;14.18;9.35;;;15.00;96.70;;;;;;4905574;29;20068;-75
2022/12/24 12:33:48;;;;;;;11.63;9.60;;;15.00;96.70;;;;;;4903761;29;20051;-75
2022/12/24 12:36:20;;;;;;;14.95;8.75;;;15.00;96.70;;;;;;4895946;29;20625;-75
2022/12/24 12:38:50;;;;;;;13.40;9.45;;;15.00;96.70;;;;;;4894850;29;20048;-74
2022/12/24 12:41:39;;;;;;;10.32;8.95;;;15.00;96.70;;;;;;4898269;29;20040;-75
2022/12/24 12:44:37;;;;;;;13.00;9.65;;;15.00;96.70;;;;;;4888748;29;20045;-75
2022/12/24 12:47:24;;;;;;;13.00;9.73;;;15.00;96.70;;;;;;4905725;29;20127;-74
2022/12/24 12:50:02;;;;;;;13.32;9.65;;;15.00;96.70;;;;;;4890706;29;20922;-75
2022/12/24 12:52:46;;;;;;;13.23;9.38;;;15.00;96.70;;;;;;4897847;29;20052;-75
2022/12/24 12:55:30;;;;;;;13.75;8.85;;;15.10;96.70;;;;;;4899912;29;20048;-74
2022/12/24 12:58:02;;;;;;;14.20;10.20;;;15.10;96.70;;;;;;4897492;29;20131;-74
2022/12/24 13:00:36;;;;;;;14.00;10.02;;;15.10;96.70;;;;;;4891342;29;20044;-75
2022/12/24 13:03:33;;;;;;;13.10;11.10;;;15.10;96.70;;;;;;4898643;29;20452;-73